sensor_id;sensor_type;location;lat;lon;timestamp;P1;durP1;ratioP1;P2;durP2;ratioP2
33138;SDS011;19501;50.948;5.316;2023-07-29T00:00:26;6.88;;;3.47;;
33138;SDS011;19501;50.948;5.316;2023-07-29T00:02:53;11.82;;;3.55;;
33138;SDS011;19501;50.948;5.316;2023-07-29T00:05:18;7.65;;;3.47;;
33138;SDS011;19501;50.948;5.316;2023-07-29T00:07:44;11.95;;;3.83;;
33138;SDS011;19501;50.948;5.316;2023-07-29T00:10:12;7.32;;;3.50;;
33138;SDS011;19501;50.948;5.316;2023-07-29T00:12:38;8.73;;;3.47;;
33138;SDS011;19501;50.948;5.316;2023-07-29T00:15:03;7.35;;;3.42;;
33138;SDS011;19501;50.948;5.316;2023-07-29T00:17:29;9.00;;;3.42;;
33138;SDS011;19501;50.948;5.316;2023-07-29T00:19:55;11.05;;;3.35;;
33138;SDS011;19501;50.948;5.316;2023-07-29T00:22:21;8.43;;;3.78;;
33138;SDS011;19501;50.948;5.316;2023-07-29T00:24:51;6.53;;;3.67;;
33138;SDS011;19501;50.948;5.316;2023-07-29T00:27:19;10.52;;;3.42;;
33138;SDS011;19501;50.948;5.316;2023-07-29T00:29:45;8.02;;;3.70;;
33138;SDS011;19501;50.948;5.316;2023-07-29T00:32:11;7.35;;;4.00;;
33138;SDS011;19501;50.948;5.316;2023-07-29T00:34:36;7.22;;;3.65;;
33138;SDS011;19501;50.948;5.316;2023-07-29T00:37:02;11.65;;;4.40;;
33138;SDS011;19501;50.948;5.316;2023-07-29T00:39:28;10.48;;;3.80;;
33138;SDS011;19501;50.948;5.316;2023-07-29T00:41:53;7.63;;;3.63;;
33138;SDS011;19501;50.948;5.316;2023-07-29T00:44:19;10.95;;;4.28;;
33138;SDS011;19501;50.948;5.316;2023-07-29T00:46:45;11.73;;;4.15;;
33138;SDS011;19501;50.948;5.316;2023-07-29T00:49:12;9.38;;;3.63;;
33138;SDS011;19501;50.948;5.316;2023-07-29T00:51:38;9.55;;;4.22;;
33138;SDS011;19501;50.948;5.316;2023-07-29T00:54:04;10.75;;;4.30;;
33138;SDS011;19501;50.948;5.316;2023-07-29T00:56:30;9.05;;;4.22;;
33138;SDS011;19501;50.948;5.316;2023-07-29T00:58:56;9.02;;;4.00;;
33138;SDS011;19501;50.948;5.316;2023-07-29T01:01:25;13.77;;;5.18;;
33138;SDS011;19501;50.948;5.316;2023-07-29T01:03:51;8.93;;;3.75;;
33138;SDS011;19501;50.948;5.316;2023-07-29T01:08:55;7.75;;;4.18;;
33138;SDS011;19501;50.948;5.316;2023-07-29T01:11:59;10.80;;;4.53;;
33138;SDS011;19501;50.948;5.316;2023-07-29T01:15:09;9.60;;;4.80;;
33138;SDS011;19501;50.948;5.316;2023-07-29T01:20:37;8.93;;;4.53;;
33138;SDS011;19501;50.948;5.316;2023-07-29T01:23:05;11.75;;;4.53;;
33138;SDS011;19501;50.948;5.316;2023-07-29T01:25:31;12.93;;;4.40;;
33138;SDS011;19501;50.948;5.316;2023-07-29T01:27:56;8.85;;;4.25;;
33138;SDS011;19501;50.948;5.316;2023-07-29T01:30:25;8.18;;;4.18;;
33138;SDS011;19501;50.948;5.316;2023-07-29T01:33:04;10.57;;;4.45;;
33138;SDS011;19501;50.948;5.316;2023-07-29T01:36:38;11.95;;;4.30;;
33138;SDS011;19501;50.948;5.316;2023-07-29T01:38:36;11.65;;;4.82;;
33138;SDS011;19501;50.948;5.316;2023-07-29T01:41:06;11.02;;;4.95;;
33138;SDS011;19501;50.948;5.316;2023-07-29T01:43:34;11.38;;;4.85;;
33138;SDS011;19501;50.948;5.316;2023-07-29T01:46:07;9.50;;;4.05;;
33138;SDS011;19501;50.948;5.316;2023-07-29T01:48:34;10.73;;;5.10;;
33138;SDS011;19501;50.948;5.316;2023-07-29T01:51:00;17.00;;;5.50;;
33138;SDS011;19501;50.948;5.316;2023-07-29T01:53:25;13.55;;;4.93;;
33138;SDS011;19501;50.948;5.316;2023-07-29T01:55:51;14.63;;;4.85;;
33138;SDS011;19501;50.948;5.316;2023-07-29T01:58:17;10.60;;;4.50;;
33138;SDS011;19501;50.948;5.316;2023-07-29T02:00:42;9.13;;;4.22;;
33138;SDS011;19501;50.948;5.316;2023-07-29T02:03:08;10.77;;;4.03;;
33138;SDS011;19501;50.948;5.316;2023-07-29T02:05:36;11.65;;;4.22;;
33138;SDS011;19501;50.948;5.316;2023-07-29T02:08:02;9.32;;;4.00;;
33138;SDS011;19501;50.948;5.316;2023-07-29T02:10:28;10.63;;;4.18;;
33138;SDS011;19501;50.948;5.316;2023-07-29T02:12:54;8.48;;;4.10;;
33138;SDS011;19501;50.948;5.316;2023-07-29T02:15:19;10.20;;;3.80;;
33138;SDS011;19501;50.948;5.316;2023-07-29T02:17:45;8.57;;;3.38;;
33138;SDS011;19501;50.948;5.316;2023-07-29T02:20:10;10.05;;;3.60;;
33138;SDS011;19501;50.948;5.316;2023-07-29T02:22:36;8.98;;;3.20;;
33138;SDS011;19501;50.948;5.316;2023-07-29T02:25:02;9.48;;;4.00;;
33138;SDS011;19501;50.948;5.316;2023-07-29T02:27:31;7.85;;;3.47;;
33138;SDS011;19501;50.948;5.316;2023-07-29T02:29:56;9.75;;;3.20;;
33138;SDS011;19501;50.948;5.316;2023-07-29T02:32:22;5.38;;;2.72;;
33138;SDS011;19501;50.948;5.316;2023-07-29T02:34:48;7.13;;;3.13;;
33138;SDS011;19501;50.948;5.316;2023-07-29T02:37:14;7.28;;;3.28;;
33138;SDS011;19501;50.948;5.316;2023-07-29T02:39:39;6.78;;;2.83;;
33138;SDS011;19501;50.948;5.316;2023-07-29T02:42:05;7.05;;;3.05;;
33138;SDS011;19501;50.948;5.316;2023-07-29T02:44:31;9.93;;;3.58;;
33138;SDS011;19501;50.948;5.316;2023-07-29T02:46:59;6.18;;;2.97;;
33138;SDS011;19501;50.948;5.316;2023-07-29T02:49:25;13.20;;;3.28;;
33138;SDS011;19501;50.948;5.316;2023-07-29T02:51:50;5.88;;;2.90;;
33138;SDS011;19501;50.948;5.316;2023-07-29T02:54:16;5.63;;;2.78;;
33138;SDS011;19501;50.948;5.316;2023-07-29T02:56:42;11.98;;;3.70;;
33138;SDS011;19501;50.948;5.316;2023-07-29T02:59:07;7.53;;;3.00;;
33138;SDS011;19501;50.948;5.316;2023-07-29T03:01:33;9.85;;;3.20;;
33138;SDS011;19501;50.948;5.316;2023-07-29T03:03:59;7.90;;;3.50;;
33138;SDS011;19501;50.948;5.316;2023-07-29T03:06:25;9.20;;;3.20;;
33138;SDS011;19501;50.948;5.316;2023-07-29T03:08:50;10.32;;;3.58;;
33138;SDS011;19501;50.948;5.316;2023-07-29T03:11:18;6.72;;;3.28;;
33138;SDS011;19501;50.948;5.316;2023-07-29T03:13:44;12.00;;;3.53;;
33138;SDS011;19501;50.948;5.316;2023-07-29T03:16:11;6.75;;;2.90;;
33138;SDS011;19501;50.948;5.316;2023-07-29T03:18:40;8.00;;;3.15;;
33138;SDS011;19501;50.948;5.316;2023-07-29T03:21:06;9.05;;;3.55;;
33138;SDS011;19501;50.948;5.316;2023-07-29T03:23:32;9.85;;;3.42;;
33138;SDS011;19501;50.948;5.316;2023-07-29T03:25:59;8.20;;;3.60;;
33138;SDS011;19501;50.948;5.316;2023-07-29T03:28:26;6.55;;;2.88;;
33138;SDS011;19501;50.948;5.316;2023-07-29T03:30:57;7.72;;;2.90;;
33138;SDS011;19501;50.948;5.316;2023-07-29T03:33:24;9.18;;;3.28;;
33138;SDS011;19501;50.948;5.316;2023-07-29T03:35:51;9.65;;;2.90;;
33138;SDS011;19501;50.948;5.316;2023-07-29T03:38:17;9.60;;;2.67;;
33138;SDS011;19501;50.948;5.316;2023-07-29T03:40:43;6.22;;;3.03;;
33138;SDS011;19501;50.948;5.316;2023-07-29T03:43:11;8.00;;;2.90;;
33138;SDS011;19501;50.948;5.316;2023-07-29T03:45:38;10.10;;;2.92;;
33138;SDS011;19501;50.948;5.316;2023-07-29T03:48:04;7.63;;;2.80;;
33138;SDS011;19501;50.948;5.316;2023-07-29T03:50:30;6.95;;;3.13;;
33138;SDS011;19501;50.948;5.316;2023-07-29T03:52:57;13.07;;;2.85;;
33138;SDS011;19501;50.948;5.316;2023-07-29T03:55:26;11.38;;;3.00;;
33138;SDS011;19501;50.948;5.316;2023-07-29T03:57:51;6.68;;;3.20;;
33138;SDS011;19501;50.948;5.316;2023-07-29T04:00:17;12.02;;;3.85;;
33138;SDS011;19501;50.948;5.316;2023-07-29T04:02:43;8.30;;;2.90;;
33138;SDS011;19501;50.948;5.316;2023-07-29T04:05:10;15.98;;;3.60;;
33138;SDS011;19501;50.948;5.316;2023-07-29T04:07:36;7.20;;;2.80;;
33138;SDS011;19501;50.948;5.316;2023-07-29T04:10:02;9.05;;;3.30;;
33138;SDS011;19501;50.948;5.316;2023-07-29T04:12:29;8.40;;;3.33;;
33138;SDS011;19501;50.948;5.316;2023-07-29T04:14:55;11.25;;;3.80;;
33138;SDS011;19501;50.948;5.316;2023-07-29T04:17:21;10.45;;;3.33;;
33138;SDS011;19501;50.948;5.316;2023-07-29T04:19:47;7.22;;;2.90;;
33138;SDS011;19501;50.948;5.316;2023-07-29T04:22:12;8.35;;;3.38;;
33138;SDS011;19501;50.948;5.316;2023-07-29T04:24:39;6.65;;;2.92;;
33138;SDS011;19501;50.948;5.316;2023-07-29T04:27:04;12.38;;;3.63;;
33138;SDS011;19501;50.948;5.316;2023-07-29T04:29:30;12.25;;;3.88;;
33138;SDS011;19501;50.948;5.316;2023-07-29T04:31:56;8.98;;;3.00;;
33138;SDS011;19501;50.948;5.316;2023-07-29T04:34:22;10.15;;;3.40;;
33138;SDS011;19501;50.948;5.316;2023-07-29T04:36:48;10.32;;;4.03;;
33138;SDS011;19501;50.948;5.316;2023-07-29T04:39:14;9.20;;;3.97;;
33138;SDS011;19501;50.948;5.316;2023-07-29T04:41:40;8.38;;;3.78;;
33138;SDS011;19501;50.948;5.316;2023-07-29T04:44:05;7.82;;;3.45;;
33138;SDS011;19501;50.948;5.316;2023-07-29T04:46:35;12.20;;;4.35;;
33138;SDS011;19501;50.948;5.316;2023-07-29T04:49:01;13.05;;;4.10;;
33138;SDS011;19501;50.948;5.316;2023-07-29T04:51:27;9.60;;;4.30;;
33138;SDS011;19501;50.948;5.316;2023-07-29T04:53:53;11.10;;;4.32;;
33138;SDS011;19501;50.948;5.316;2023-07-29T04:56:19;13.10;;;4.47;;
33138;SDS011;19501;50.948;5.316;2023-07-29T04:58:45;10.27;;;3.60;;
33138;SDS011;19501;50.948;5.316;2023-07-29T05:01:10;18.65;;;4.22;;
33138;SDS011;19501;50.948;5.316;2023-07-29T05:03:36;10.80;;;3.63;;
33138;SDS011;19501;50.948;5.316;2023-07-29T05:06:03;11.63;;;3.97;;
33138;SDS011;19501;50.948;5.316;2023-07-29T05:08:29;9.15;;;3.88;;
33138;SDS011;19501;50.948;5.316;2023-07-29T05:10:54;12.00;;;3.95;;
33138;SDS011;19501;50.948;5.316;2023-07-29T05:13:21;9.18;;;4.00;;
33138;SDS011;19501;50.948;5.316;2023-07-29T05:15:48;8.43;;;4.07;;
33138;SDS011;19501;50.948;5.316;2023-07-29T05:18:14;11.52;;;3.92;;
33138;SDS011;19501;50.948;5.316;2023-07-29T05:20:40;9.23;;;4.00;;
33138;SDS011;19501;50.948;5.316;2023-07-29T05:23:06;8.45;;;3.53;;
33138;SDS011;19501;50.948;5.316;2023-07-29T05:25:34;12.10;;;3.75;;
33138;SDS011;19501;50.948;5.316;2023-07-29T05:28:00;9.38;;;3.72;;
33138;SDS011;19501;50.948;5.316;2023-07-29T05:30:27;11.40;;;4.05;;
33138;SDS011;19501;50.948;5.316;2023-07-29T05:32:56;10.65;;;3.80;;
33138;SDS011;19501;50.948;5.316;2023-07-29T05:35:22;10.10;;;3.45;;
33138;SDS011;19501;50.948;5.316;2023-07-29T05:37:48;10.25;;;3.78;;
33138;SDS011;19501;50.948;5.316;2023-07-29T05:40:14;11.45;;;3.60;;
33138;SDS011;19501;50.948;5.316;2023-07-29T05:42:41;10.32;;;3.67;;
33138;SDS011;19501;50.948;5.316;2023-07-29T05:45:07;9.00;;;3.95;;
33138;SDS011;19501;50.948;5.316;2023-07-29T05:47:34;11.05;;;3.55;;
33138;SDS011;19501;50.948;5.316;2023-07-29T05:49:59;7.53;;;3.08;;
33138;SDS011;19501;50.948;5.316;2023-07-29T05:52:29;10.07;;;3.20;;
33138;SDS011;19501;50.948;5.316;2023-07-29T05:54:58;5.75;;;3.17;;
33138;SDS011;19501;50.948;5.316;2023-07-29T05:57:23;10.20;;;3.03;;
33138;SDS011;19501;50.948;5.316;2023-07-29T05:59:49;10.60;;;3.25;;
33138;SDS011;19501;50.948;5.316;2023-07-29T06:02:15;12.57;;;4.03;;
33138;SDS011;19501;50.948;5.316;2023-07-29T06:04:43;8.52;;;3.20;;
33138;SDS011;19501;50.948;5.316;2023-07-29T06:07:08;10.35;;;3.55;;
33138;SDS011;19501;50.948;5.316;2023-07-29T06:09:35;7.22;;;3.03;;
33138;SDS011;19501;50.948;5.316;2023-07-29T06:12:00;13.48;;;3.80;;
33138;SDS011;19501;50.948;5.316;2023-07-29T06:14:26;11.63;;;3.65;;
33138;SDS011;19501;50.948;5.316;2023-07-29T06:16:52;7.13;;;3.15;;
33138;SDS011;19501;50.948;5.316;2023-07-29T06:19:18;6.70;;;2.88;;
33138;SDS011;19501;50.948;5.316;2023-07-29T06:21:44;8.82;;;3.50;;
33138;SDS011;19501;50.948;5.316;2023-07-29T06:24:13;7.57;;;3.30;;
33138;SDS011;19501;50.948;5.316;2023-07-29T06:26:38;11.88;;;3.97;;
33138;SDS011;19501;50.948;5.316;2023-07-29T06:29:04;9.93;;;3.25;;
33138;SDS011;19501;50.948;5.316;2023-07-29T06:31:30;8.13;;;3.72;;
33138;SDS011;19501;50.948;5.316;2023-07-29T06:33:57;8.95;;;3.28;;
33138;SDS011;19501;50.948;5.316;2023-07-29T06:36:23;9.32;;;3.30;;
33138;SDS011;19501;50.948;5.316;2023-07-29T06:38:49;7.13;;;2.95;;
33138;SDS011;19501;50.948;5.316;2023-07-29T06:41:14;6.50;;;2.80;;
33138;SDS011;19501;50.948;5.316;2023-07-29T06:43:41;7.40;;;2.75;;
33138;SDS011;19501;50.948;5.316;2023-07-29T06:46:07;8.73;;;3.20;;
33138;SDS011;19501;50.948;5.316;2023-07-29T06:48:33;12.32;;;3.05;;
33138;SDS011;19501;50.948;5.316;2023-07-29T06:50:58;9.18;;;2.90;;
33138;SDS011;19501;50.948;5.316;2023-07-29T06:53:26;7.10;;;2.85;;
33138;SDS011;19501;50.948;5.316;2023-07-29T06:55:52;10.52;;;4.00;;
33138;SDS011;19501;50.948;5.316;2023-07-29T06:58:20;7.68;;;2.83;;
33138;SDS011;19501;50.948;5.316;2023-07-29T07:00:46;9.73;;;3.05;;
33138;SDS011;19501;50.948;5.316;2023-07-29T07:03:12;8.63;;;3.13;;
33138;SDS011;19501;50.948;5.316;2023-07-29T07:05:39;8.20;;;2.85;;
33138;SDS011;19501;50.948;5.316;2023-07-29T07:08:05;7.07;;;2.70;;
33138;SDS011;19501;50.948;5.316;2023-07-29T07:10:34;5.45;;;2.70;;
33138;SDS011;19501;50.948;5.316;2023-07-29T07:12:59;4.60;;;2.40;;
33138;SDS011;19501;50.948;5.316;2023-07-29T07:15:25;11.07;;;2.72;;
33138;SDS011;19501;50.948;5.316;2023-07-29T07:17:51;6.07;;;2.90;;
33138;SDS011;19501;50.948;5.316;2023-07-29T07:20:17;5.07;;;2.30;;
33138;SDS011;19501;50.948;5.316;2023-07-29T07:22:42;8.00;;;2.40;;
33138;SDS011;19501;50.948;5.316;2023-07-29T07:25:10;4.38;;;2.20;;
33138;SDS011;19501;50.948;5.316;2023-07-29T07:27:36;7.03;;;2.30;;
33138;SDS011;19501;50.948;5.316;2023-07-29T07:30:02;6.28;;;2.63;;
33138;SDS011;19501;50.948;5.316;2023-07-29T07:32:28;8.18;;;2.60;;
33138;SDS011;19501;50.948;5.316;2023-07-29T07:34:54;9.13;;;2.50;;
33138;SDS011;19501;50.948;5.316;2023-07-29T07:37:20;6.43;;;2.70;;
33138;SDS011;19501;50.948;5.316;2023-07-29T07:39:45;6.68;;;2.20;;
33138;SDS011;19501;50.948;5.316;2023-07-29T07:42:11;4.18;;;2.20;;
33138;SDS011;19501;50.948;5.316;2023-07-29T07:44:37;6.75;;;2.47;;
33138;SDS011;19501;50.948;5.316;2023-07-29T07:47:03;7.35;;;3.25;;
33138;SDS011;19501;50.948;5.316;2023-07-29T07:49:28;4.00;;;2.35;;
33138;SDS011;19501;50.948;5.316;2023-07-29T07:51:54;8.82;;;2.55;;
33138;SDS011;19501;50.948;5.316;2023-07-29T07:54:20;5.88;;;2.58;;
33138;SDS011;19501;50.948;5.316;2023-07-29T07:56:45;5.95;;;2.83;;
33138;SDS011;19501;50.948;5.316;2023-07-29T07:59:11;5.18;;;2.33;;
33138;SDS011;19501;50.948;5.316;2023-07-29T08:01:37;8.75;;;2.90;;
33138;SDS011;19501;50.948;5.316;2023-07-29T08:04:04;5.20;;;2.67;;
33138;SDS011;19501;50.948;5.316;2023-07-29T08:06:30;6.07;;;2.40;;
33138;SDS011;19501;50.948;5.316;2023-07-29T08:08:56;6.30;;;2.20;;
33138;SDS011;19501;50.948;5.316;2023-07-29T08:11:22;4.63;;;2.63;;
33138;SDS011;19501;50.948;5.316;2023-07-29T08:13:50;9.20;;;2.47;;
33138;SDS011;19501;50.948;5.316;2023-07-29T08:16:16;7.05;;;2.42;;
33138;SDS011;19501;50.948;5.316;2023-07-29T08:18:42;5.05;;;2.95;;
33138;SDS011;19501;50.948;5.316;2023-07-29T08:21:07;5.68;;;2.50;;
33138;SDS011;19501;50.948;5.316;2023-07-29T08:23:34;9.27;;;2.70;;
33138;SDS011;19501;50.948;5.316;2023-07-29T08:26:01;4.28;;;2.20;;
33138;SDS011;19501;50.948;5.316;2023-07-29T08:28:33;7.60;;;2.55;;
33138;SDS011;19501;50.948;5.316;2023-07-29T08:31:01;6.80;;;2.60;;
33138;SDS011;19501;50.948;5.316;2023-07-29T08:33:27;6.88;;;2.72;;
33138;SDS011;19501;50.948;5.316;2023-07-29T08:35:53;6.22;;;2.60;;
33138;SDS011;19501;50.948;5.316;2023-07-29T08:38:19;8.68;;;2.80;;
33138;SDS011;19501;50.948;5.316;2023-07-29T08:40:46;4.75;;;2.25;;
33138;SDS011;19501;50.948;5.316;2023-07-29T08:43:19;9.25;;;2.80;;
33138;SDS011;19501;50.948;5.316;2023-07-29T08:45:47;8.30;;;2.55;;
33138;SDS011;19501;50.948;5.316;2023-07-29T08:48:15;7.80;;;2.75;;
33138;SDS011;19501;50.948;5.316;2023-07-29T08:50:45;4.82;;;2.58;;
33138;SDS011;19501;50.948;5.316;2023-07-29T08:53:12;6.43;;;2.80;;
33138;SDS011;19501;50.948;5.316;2023-07-29T08:55:38;7.85;;;2.65;;
33138;SDS011;19501;50.948;5.316;2023-07-29T08:58:04;11.90;;;2.90;;
33138;SDS011;19501;50.948;5.316;2023-07-29T09:00:30;8.73;;;2.80;;
33138;SDS011;19501;50.948;5.316;2023-07-29T09:02:57;5.82;;;2.60;;
33138;SDS011;19501;50.948;5.316;2023-07-29T09:05:27;6.43;;;2.40;;
33138;SDS011;19501;50.948;5.316;2023-07-29T09:07:53;4.57;;;2.55;;
33138;SDS011;19501;50.948;5.316;2023-07-29T09:10:21;6.55;;;2.50;;
33138;SDS011;19501;50.948;5.316;2023-07-29T09:12:48;5.50;;;2.58;;
33138;SDS011;19501;50.948;5.316;2023-07-29T09:15:25;4.35;;;2.40;;
33138;SDS011;19501;50.948;5.316;2023-07-29T09:17:52;4.82;;;2.25;;
33138;SDS011;19501;50.948;5.316;2023-07-29T09:20:23;4.65;;;2.38;;
33138;SDS011;19501;50.948;5.316;2023-07-29T09:22:50;6.00;;;2.20;;
33138;SDS011;19501;50.948;5.316;2023-07-29T09:25:15;4.05;;;2.25;;
33138;SDS011;19501;50.948;5.316;2023-07-29T09:27:42;4.57;;;2.25;;
33138;SDS011;19501;50.948;5.316;2023-07-29T09:30:16;5.78;;;2.47;;
33138;SDS011;19501;50.948;5.316;2023-07-29T09:35:11;4.47;;;2.22;;
33138;SDS011;19501;50.948;5.316;2023-07-29T09:37:40;5.97;;;2.50;;
33138;SDS011;19501;50.948;5.316;2023-07-29T09:40:06;4.43;;;2.40;;
33138;SDS011;19501;50.948;5.316;2023-07-29T09:42:40;3.72;;;2.30;;
33138;SDS011;19501;50.948;5.316;2023-07-29T09:45:23;4.75;;;2.65;;
33138;SDS011;19501;50.948;5.316;2023-07-29T09:47:50;6.55;;;2.53;;
33138;SDS011;19501;50.948;5.316;2023-07-29T09:50:16;3.42;;;2.42;;
33138;SDS011;19501;50.948;5.316;2023-07-29T09:52:42;6.80;;;2.63;;
33138;SDS011;19501;50.948;5.316;2023-07-29T09:55:12;5.30;;;2.85;;
33138;SDS011;19501;50.948;5.316;2023-07-29T09:57:39;6.28;;;2.42;;
33138;SDS011;19501;50.948;5.316;2023-07-29T10:00:06;4.38;;;2.42;;
33138;SDS011;19501;50.948;5.316;2023-07-29T10:02:36;4.95;;;2.50;;
33138;SDS011;19501;50.948;5.316;2023-07-29T10:05:07;4.72;;;2.55;;
33138;SDS011;19501;50.948;5.316;2023-07-29T10:07:34;4.05;;;2.50;;
33138;SDS011;19501;50.948;5.316;2023-07-29T10:10:05;6.20;;;2.80;;
33138;SDS011;19501;50.948;5.316;2023-07-29T10:12:32;6.90;;;2.50;;
33138;SDS011;19501;50.948;5.316;2023-07-29T10:14:59;5.60;;;2.65;;
33138;SDS011;19501;50.948;5.316;2023-07-29T10:17:26;6.43;;;2.58;;
33138;SDS011;19501;50.948;5.316;2023-07-29T10:19:53;6.47;;;2.83;;
33138;SDS011;19501;50.948;5.316;2023-07-29T10:22:21;8.95;;;2.40;;
33138;SDS011;19501;50.948;5.316;2023-07-29T10:24:49;6.80;;;3.15;;
33138;SDS011;19501;50.948;5.316;2023-07-29T10:27:19;4.25;;;2.47;;
33138;SDS011;19501;50.948;5.316;2023-07-29T10:29:46;5.70;;;2.97;;
33138;SDS011;19501;50.948;5.316;2023-07-29T10:32:12;6.05;;;2.83;;
33138;SDS011;19501;50.948;5.316;2023-07-29T10:34:38;6.22;;;2.70;;
33138;SDS011;19501;50.948;5.316;2023-07-29T10:37:05;5.18;;;2.70;;
33138;SDS011;19501;50.948;5.316;2023-07-29T10:39:38;5.75;;;2.83;;
33138;SDS011;19501;50.948;5.316;2023-07-29T10:42:05;5.65;;;2.45;;
33138;SDS011;19501;50.948;5.316;2023-07-29T10:47:11;5.85;;;2.72;;
33138;SDS011;19501;50.948;5.316;2023-07-29T10:49:49;5.57;;;3.08;;
33138;SDS011;19501;50.948;5.316;2023-07-29T10:52:28;4.18;;;2.75;;
33138;SDS011;19501;50.948;5.316;2023-07-29T10:55:00;4.68;;;2.58;;
33138;SDS011;19501;50.948;5.316;2023-07-29T10:57:34;6.95;;;2.75;;
33138;SDS011;19501;50.948;5.316;2023-07-29T11:00:02;5.50;;;2.70;;
33138;SDS011;19501;50.948;5.316;2023-07-29T11:04:57;8.10;;;3.20;;
33138;SDS011;19501;50.948;5.316;2023-07-29T11:07:24;8.35;;;2.97;;
33138;SDS011;19501;50.948;5.316;2023-07-29T11:15:13;7.72;;;3.28;;
33138;SDS011;19501;50.948;5.316;2023-07-29T11:17:44;9.93;;;3.58;;
33138;SDS011;19501;50.948;5.316;2023-07-29T11:20:15;9.93;;;3.10;;
33138;SDS011;19501;50.948;5.316;2023-07-29T11:22:42;11.70;;;3.00;;
33138;SDS011;19501;50.948;5.316;2023-07-29T11:25:09;7.97;;;2.95;;
33138;SDS011;19501;50.948;5.316;2023-07-29T11:27:36;9.13;;;3.30;;
33138;SDS011;19501;50.948;5.316;2023-07-29T11:30:03;8.32;;;3.53;;
33138;SDS011;19501;50.948;5.316;2023-07-29T11:32:31;9.88;;;3.90;;
33138;SDS011;19501;50.948;5.316;2023-07-29T11:35:01;8.48;;;3.67;;
33138;SDS011;19501;50.948;5.316;2023-07-29T11:37:32;10.05;;;4.05;;
33138;SDS011;19501;50.948;5.316;2023-07-29T11:39:58;12.65;;;5.03;;
33138;SDS011;19501;50.948;5.316;2023-07-29T11:42:24;10.40;;;3.97;;
33138;SDS011;19501;50.948;5.316;2023-07-29T11:44:56;16.23;;;5.03;;
33138;SDS011;19501;50.948;5.316;2023-07-29T11:47:23;11.05;;;4.78;;
33138;SDS011;19501;50.948;5.316;2023-07-29T11:49:49;11.75;;;4.57;;
33138;SDS011;19501;50.948;5.316;2023-07-29T11:52:14;12.85;;;4.78;;
33138;SDS011;19501;50.948;5.316;2023-07-29T11:54:44;9.25;;;4.20;;
33138;SDS011;19501;50.948;5.316;2023-07-29T11:57:10;16.15;;;4.75;;
33138;SDS011;19501;50.948;5.316;2023-07-29T11:59:36;11.38;;;4.68;;
33138;SDS011;19501;50.948;5.316;2023-07-29T12:02:24;9.60;;;4.22;;
33138;SDS011;19501;50.948;5.316;2023-07-29T12:04:50;11.77;;;5.38;;
33138;SDS011;19501;50.948;5.316;2023-07-29T12:07:16;12.05;;;5.05;;
33138;SDS011;19501;50.948;5.316;2023-07-29T12:09:43;12.30;;;5.13;;
33138;SDS011;19501;50.948;5.316;2023-07-29T12:12:09;10.75;;;4.72;;
33138;SDS011;19501;50.948;5.316;2023-07-29T12:14:35;10.73;;;4.45;;
33138;SDS011;19501;50.948;5.316;2023-07-29T12:17:05;9.80;;;4.22;;
33138;SDS011;19501;50.948;5.316;2023-07-29T12:19:38;14.05;;;4.80;;
33138;SDS011;19501;50.948;5.316;2023-07-29T12:22:06;8.60;;;4.40;;
33138;SDS011;19501;50.948;5.316;2023-07-29T12:24:34;9.23;;;4.20;;
33138;SDS011;19501;50.948;5.316;2023-07-29T12:27:02;12.02;;;4.18;;
33138;SDS011;19501;50.948;5.316;2023-07-29T12:29:28;10.60;;;4.82;;
33138;SDS011;19501;50.948;5.316;2023-07-29T12:31:57;9.68;;;4.07;;
33138;SDS011;19501;50.948;5.316;2023-07-29T12:34:25;10.25;;;4.22;;
33138;SDS011;19501;50.948;5.316;2023-07-29T12:36:54;2.65;;;1.25;;
33138;SDS011;19501;50.948;5.316;2023-07-29T12:39:25;0.38;;;0.38;;
33138;SDS011;19501;50.948;5.316;2023-07-29T12:41:54;0.40;;;0.40;;
33138;SDS011;19501;50.948;5.316;2023-07-29T12:44:25;0.30;;;0.30;;
33138;SDS011;19501;50.948;5.316;2023-07-29T12:47:00;0.38;;;0.38;;
33138;SDS011;19501;50.948;5.316;2023-07-29T12:49:27;0.40;;;0.40;;
33138;SDS011;19501;50.948;5.316;2023-07-29T12:51:54;0.30;;;0.30;;
33138;SDS011;19501;50.948;5.316;2023-07-29T12:54:20;1.08;;;1.05;;
33138;SDS011;19501;50.948;5.316;2023-07-29T12:56:46;0.40;;;0.40;;
33138;SDS011;19501;50.948;5.316;2023-07-29T12:59:12;0.40;;;0.40;;
33138;SDS011;19501;50.948;5.316;2023-07-29T13:01:37;1.15;;;1.02;;
33138;SDS011;19501;50.948;5.316;2023-07-29T13:04:03;0.40;;;0.40;;
33138;SDS011;19501;50.948;5.316;2023-07-29T13:06:29;0.90;;;0.90;;
33138;SDS011;19501;50.948;5.316;2023-07-29T13:08:55;0.40;;;0.40;;
33138;SDS011;19501;50.948;5.316;2023-07-29T13:11:21;0.30;;;0.30;;
33138;SDS011;19501;50.948;5.316;2023-07-29T13:13:47;0.40;;;0.40;;
33138;SDS011;19501;50.948;5.316;2023-07-29T13:16:12;0.30;;;0.30;;
33138;SDS011;19501;50.948;5.316;2023-07-29T13:18:38;0.30;;;0.30;;
33138;SDS011;19501;50.948;5.316;2023-07-29T13:21:04;0.60;;;0.60;;
33138;SDS011;19501;50.948;5.316;2023-07-29T13:23:30;0.30;;;0.30;;
33138;SDS011;19501;50.948;5.316;2023-07-29T13:25:56;0.40;;;0.40;;
33138;SDS011;19501;50.948;5.316;2023-07-29T13:28:22;0.40;;;0.40;;
33138;SDS011;19501;50.948;5.316;2023-07-29T13:30:48;0.40;;;0.40;;
33138;SDS011;19501;50.948;5.316;2023-07-29T13:33:14;0.30;;;0.30;;
33138;SDS011;19501;50.948;5.316;2023-07-29T13:35:40;0.40;;;0.40;;
33138;SDS011;19501;50.948;5.316;2023-07-29T13:38:05;0.40;;;0.40;;
33138;SDS011;19501;50.948;5.316;2023-07-29T13:40:31;0.38;;;0.38;;
33138;SDS011;19501;50.948;5.316;2023-07-29T13:42:57;0.40;;;0.40;;
33138;SDS011;19501;50.948;5.316;2023-07-29T13:45:23;0.40;;;0.40;;
33138;SDS011;19501;50.948;5.316;2023-07-29T13:47:49;0.40;;;0.40;;
33138;SDS011;19501;50.948;5.316;2023-07-29T13:50:15;0.40;;;0.40;;
33138;SDS011;19501;50.948;5.316;2023-07-29T13:52:41;3.08;;;2.88;;
33138;SDS011;19501;50.948;5.316;2023-07-29T13:55:07;0.40;;;0.40;;
33138;SDS011;19501;50.948;5.316;2023-07-29T13:57:33;0.40;;;0.40;;
33138;SDS011;19501;50.948;5.316;2023-07-29T13:59:59;0.70;;;0.70;;
33138;SDS011;19501;50.948;5.316;2023-07-29T14:02:24;0.40;;;0.40;;
33138;SDS011;19501;50.948;5.316;2023-07-29T14:04:53;0.40;;;0.40;;
33138;SDS011;19501;50.948;5.316;2023-07-29T14:07:19;0.40;;;0.40;;
33138;SDS011;19501;50.948;5.316;2023-07-29T14:09:46;0.80;;;0.80;;
33138;SDS011;19501;50.948;5.316;2023-07-29T14:12:12;0.40;;;0.40;;
33138;SDS011;19501;50.948;5.316;2023-07-29T14:14:39;0.40;;;0.40;;
33138;SDS011;19501;50.948;5.316;2023-07-29T14:17:05;0.40;;;0.40;;
33138;SDS011;19501;50.948;5.316;2023-07-29T14:19:33;0.40;;;0.40;;
33138;SDS011;19501;50.948;5.316;2023-07-29T14:21:59;0.32;;;0.32;;
33138;SDS011;19501;50.948;5.316;2023-07-29T14:24:25;0.40;;;0.40;;
33138;SDS011;19501;50.948;5.316;2023-07-29T14:26:51;0.40;;;0.40;;
33138;SDS011;19501;50.948;5.316;2023-07-29T14:29:16;0.40;;;0.40;;
33138;SDS011;19501;50.948;5.316;2023-07-29T14:31:42;0.40;;;0.40;;
33138;SDS011;19501;50.948;5.316;2023-07-29T14:34:08;0.40;;;0.40;;
33138;SDS011;19501;50.948;5.316;2023-07-29T14:36:34;2.72;;;1.65;;
33138;SDS011;19501;50.948;5.316;2023-07-29T14:39:00;0.40;;;0.40;;
33138;SDS011;19501;50.948;5.316;2023-07-29T14:41:26;0.40;;;0.40;;
33138;SDS011;19501;50.948;5.316;2023-07-29T14:43:51;0.40;;;0.40;;
33138;SDS011;19501;50.948;5.316;2023-07-29T14:46:17;0.40;;;0.40;;
33138;SDS011;19501;50.948;5.316;2023-07-29T14:48:43;0.38;;;0.38;;
33138;SDS011;19501;50.948;5.316;2023-07-29T14:51:08;0.95;;;0.73;;
33138;SDS011;19501;50.948;5.316;2023-07-29T14:53:34;0.40;;;0.40;;
33138;SDS011;19501;50.948;5.316;2023-07-29T14:56:00;0.40;;;0.40;;
33138;SDS011;19501;50.948;5.316;2023-07-29T14:58:25;0.40;;;0.40;;
33138;SDS011;19501;50.948;5.316;2023-07-29T15:00:51;0.40;;;0.40;;